createdAt,value
2023-05-07T00:00:16.849Z,65.54
2023-05-07T00:02:46.118Z,65.73
2023-05-07T00:05:14.799Z,66.37
2023-05-07T00:07:43.899Z,65.29
2023-05-07T00:10:14.259Z,65.76
2023-05-07T00:12:42.927Z,65.47
2023-05-07T00:15:12.270Z,66.00
2023-05-07T00:17:40.863Z,66.39
2023-05-07T00:20:09.811Z,66.15
2023-05-07T00:22:41.789Z,66.30
2023-05-07T00:25:11.541Z,66.12
2023-05-07T00:27:39.744Z,66.18
2023-05-07T00:30:08.785Z,67.52
2023-05-07T00:32:38.343Z,67.33
2023-05-07T00:35:10.002Z,65.44
2023-05-07T00:37:38.781Z,66.23
2023-05-07T00:40:09.126Z,67.12
2023-05-07T00:42:38.053Z,66.68
2023-05-07T00:45:06.343Z,67.81
2023-05-07T00:47:35.199Z,66.82
2023-05-07T00:50:03.846Z,67.40
2023-05-07T00:52:36.197Z,67.40
2023-05-07T00:55:07.357Z,68.67
2023-05-07T00:57:39.710Z,68.39
2023-05-07T01:00:10.371Z,69.20
2023-05-07T01:02:40.099Z,68.98
2023-05-07T01:05:11.256Z,68.46
2023-05-07T01:07:41.470Z,68.56
2023-05-07T01:10:11.154Z,68.69
2023-05-07T01:12:40.685Z,67.50
2023-05-07T01:15:10.385Z,69.52
2023-05-07T01:17:41.527Z,69.29
2023-05-07T01:20:16.072Z,67.93
2023-05-07T01:22:45.124Z,68.70
2023-05-07T01:25:13.946Z,69.92
2023-05-07T01:27:42.469Z,69.44
2023-05-07T01:30:11.087Z,69.88
2023-05-07T01:32:41.930Z,70.63
2023-05-07T01:35:14.127Z,72.09
2023-05-07T01:37:42.747Z,72.42
2023-05-07T01:40:11.634Z,72.29
2023-05-07T01:42:40.332Z,72.46
2023-05-07T01:45:09.418Z,71.64
2023-05-07T01:47:39.112Z,73.24
2023-05-07T01:50:09.811Z,73.06
2023-05-07T01:52:42.230Z,72.36
2023-05-07T01:55:11.121Z,73.53
2023-05-07T01:57:39.771Z,73.37
2023-05-07T02:00:10.121Z,73.32
2023-05-07T02:02:39.964Z,72.19
2023-05-07T02:05:09.598Z,71.94
2023-05-07T02:07:38.742Z,73.53
2023-05-07T02:10:08.017Z,73.85
2023-05-07T02:12:36.662Z,74.01
2023-05-07T02:15:08.917Z,73.12
2023-05-07T02:17:41.934Z,72.29
2023-05-07T02:20:15.012Z,71.79
2023-05-07T02:22:45.442Z,72.47
2023-05-07T02:25:16.548Z,69.58
2023-05-07T02:27:44.488Z,70.03
2023-05-07T02:30:13.108Z,69.95
2023-05-07T02:32:41.450Z,67.87
2023-05-07T02:35:11.109Z,62.48
2023-05-07T02:37:39.242Z,57.50
2023-05-07T02:40:08.695Z,52.45
2023-05-07T02:42:37.400Z,49.47
2023-05-07T02:45:06.287Z,47.64
2023-05-07T02:47:34.576Z,45.70
2023-05-07T02:50:04.943Z,44.48
2023-05-07T02:52:33.428Z,43.06
2023-05-07T02:55:01.355Z,41.48
2023-05-07T02:57:29.891Z,40.21
2023-05-07T02:59:59.907Z,40.25
2023-05-07T03:02:27.850Z,38.61
2023-05-07T03:04:56.092Z,39.01
2023-05-07T03:07:24.263Z,37.21
2023-05-07T03:09:52.299Z,35.95
2023-05-07T03:12:20.335Z,36.13
2023-05-07T03:14:51.082Z,35.00
2023-05-07T03:17:19.190Z,34.25
2023-05-07T03:19:47.417Z,33.99
2023-05-07T03:22:16.100Z,33.82
2023-05-07T03:24:44.145Z,33.69
2023-05-07T03:27:12.225Z,33.10
2023-05-07T03:29:40.206Z,32.88
2023-05-07T03:32:08.579Z,31.39
2023-05-07T03:34:36.772Z,31.15
2023-05-07T03:37:05.038Z,30.12
2023-05-07T03:39:35.282Z,29.77
2023-05-07T03:42:03.810Z,28.46
2023-05-07T03:44:32.033Z,27.21
2023-05-07T03:47:00.303Z,27.59
2023-05-07T03:49:28.366Z,26.28
2023-05-07T03:51:57.267Z,25.63
2023-05-07T03:54:32.028Z,25.61
2023-05-07T03:57:00.440Z,26.22
2023-05-07T03:59:28.632Z,25.46
2023-05-07T04:01:56.870Z,25.04
2023-05-07T04:04:25.109Z,24.35
2023-05-07T04:06:54.649Z,24.54
2023-05-07T04:09:23.401Z,24.34
2023-05-07T04:11:51.672Z,24.23
2023-05-07T04:14:19.691Z,24.43
2023-05-07T04:16:47.776Z,24.75
2023-05-07T04:19:16.031Z,23.54
2023-05-07T04:21:44.751Z,22.75
2023-05-07T04:24:13.244Z,22.68
2023-05-07T04:26:41.654Z,23.07
2023-05-07T04:29:09.950Z,22.11
2023-05-07T04:31:40.174Z,21.62
2023-05-07T04:34:10.357Z,23.01
2023-05-07T04:36:41.028Z,22.81
2023-05-07T04:39:09.112Z,22.90
2023-05-07T04:41:40.244Z,22.17
2023-05-07T04:44:08.308Z,22.45
2023-05-07T04:46:36.409Z,21.90
2023-05-07T04:49:04.678Z,21.29
2023-05-07T04:51:38.017Z,21.21
2023-05-07T04:54:06.169Z,20.43
2023-05-07T04:56:35.008Z,20.36
2023-05-07T04:59:03.224Z,19.87
2023-05-07T05:01:32.128Z,20.19
2023-05-07T05:04:01.858Z,20.25
2023-05-07T05:06:30.499Z,19.67
2023-05-07T05:08:58.581Z,20.32
2023-05-07T05:11:28.834Z,19.68
2023-05-07T05:13:57.142Z,19.92
2023-05-07T05:16:25.722Z,20.49
2023-05-07T05:18:55.589Z,20.84
2023-05-07T05:21:23.727Z,20.35
2023-05-07T05:23:51.988Z,20.85
2023-05-07T05:26:20.551Z,21.02
2023-05-07T05:28:48.873Z,20.73
2023-05-07T05:31:18.193Z,20.57
2023-05-07T05:33:46.378Z,20.44
2023-05-07T05:36:14.507Z,20.60
2023-05-07T05:38:42.656Z,20.49
2023-05-07T05:41:11.157Z,20.44
2023-05-07T05:43:39.387Z,20.11
2023-05-07T05:46:07.688Z,19.47
2023-05-07T05:48:36.325Z,19.67
2023-05-07T05:51:05.384Z,20.62
2023-05-07T05:53:33.462Z,20.58
2023-05-07T05:56:06.290Z,20.41
2023-05-07T05:58:34.620Z,21.23
2023-05-07T06:01:04.041Z,20.67
2023-05-07T06:03:33.883Z,20.18
2023-05-07T06:06:02.151Z,20.61
2023-05-07T06:08:33.302Z,20.78
2023-05-07T06:11:02.876Z,20.99
2023-05-07T06:13:31.037Z,21.54
2023-05-07T06:15:59.351Z,21.70
2023-05-07T06:18:27.513Z,21.66
2023-05-07T06:20:55.594Z,21.45
2023-05-07T06:23:23.502Z,21.78
2023-05-07T06:25:53.094Z,22.12
2023-05-07T06:28:21.378Z,21.56
2023-05-07T06:30:51.120Z,22.21
2023-05-07T06:33:18.776Z,22.44
2023-05-07T06:35:47.105Z,22.24
2023-05-07T06:38:15.210Z,21.86
2023-05-07T06:40:43.411Z,21.58
2023-05-07T06:43:12.312Z,21.93
2023-05-07T06:45:40.215Z,22.16
2023-05-07T06:48:08.330Z,22.09
2023-05-07T06:50:36.362Z,22.99
2023-05-07T06:53:04.795Z,23.16
2023-05-07T06:55:34.027Z,25.13
2023-05-07T06:58:02.379Z,28.33
2023-05-07T07:00:30.833Z,30.48
2023-05-07T07:03:02.209Z,32.03
2023-05-07T07:05:30.726Z,33.51
2023-05-07T07:07:58.675Z,34.55
2023-05-07T07:10:27.703Z,34.75
2023-05-07T07:12:58.623Z,35.37
2023-05-07T07:15:28.032Z,36.17
2023-05-07T07:17:56.267Z,36.23
2023-05-07T07:20:24.799Z,35.93
2023-05-07T07:22:53.576Z,36.93
2023-05-07T07:25:22.066Z,35.91
2023-05-07T07:27:50.994Z,34.93
2023-05-07T07:30:19.449Z,35.76
2023-05-07T07:32:47.625Z,36.52
2023-05-07T07:35:15.680Z,35.75
2023-05-07T07:37:46.054Z,36.07
2023-05-07T07:40:14.500Z,36.19
2023-05-07T07:42:42.492Z,36.81
2023-05-07T07:45:12.140Z,36.41
2023-05-07T07:47:42.150Z,36.38
2023-05-07T07:50:11.094Z,37.46
2023-05-07T07:52:39.514Z,35.28
2023-05-07T07:55:08.291Z,35.93
2023-05-07T07:57:37.135Z,35.71
2023-05-07T08:00:08.758Z,35.88
2023-05-07T08:02:37.320Z,35.91
2023-05-07T08:05:05.740Z,34.77
2023-05-07T08:07:33.732Z,34.19
2023-05-07T08:10:01.675Z,34.31
2023-05-07T08:12:29.738Z,33.74
2023-05-07T08:14:57.754Z,34.54
2023-05-07T08:17:26.343Z,34.92
2023-05-07T08:19:54.861Z,36.16
2023-05-07T08:22:24.930Z,35.14
2023-05-07T08:24:54.707Z,35.32
2023-05-07T08:27:22.614Z,34.19
2023-05-07T08:29:51.145Z,34.79
2023-05-07T08:32:19.085Z,34.92
2023-05-07T08:34:47.455Z,33.76
2023-05-07T08:37:15.467Z,34.79
2023-05-07T08:39:43.695Z,33.97
2023-05-07T08:42:12.922Z,33.89
2023-05-07T08:44:48.215Z,34.25
2023-05-07T08:47:16.481Z,35.35
2023-05-07T08:49:44.391Z,34.00
2023-05-07T08:52:18.296Z,33.13
2023-05-07T08:54:46.531Z,33.08
2023-05-07T08:57:14.496Z,32.82
2023-05-07T08:59:46.200Z,33.26
2023-05-07T09:02:14.474Z,33.42
2023-05-07T09:04:42.740Z,33.74
2023-05-07T09:07:11.342Z,32.87
2023-05-07T09:09:39.590Z,32.04
2023-05-07T09:12:07.998Z,32.90
2023-05-07T09:14:40.353Z,32.21
2023-05-07T09:17:09.491Z,32.45
2023-05-07T09:19:38.522Z,32.28
2023-05-07T09:22:10.515Z,32.18
2023-05-07T09:24:39.204Z,32.07
2023-05-07T09:27:08.140Z,32.06
2023-05-07T09:29:37.123Z,31.58
2023-05-07T09:32:07.192Z,31.27
2023-05-07T09:34:36.245Z,30.54
2023-05-07T09:37:05.350Z,30.98
2023-05-07T09:39:50.441Z,30.53
2023-05-07T09:42:24.838Z,30.67
2023-05-07T09:44:52.933Z,30.87
2023-05-07T09:47:23.039Z,29.50
2023-05-07T09:49:51.624Z,29.35
2023-05-07T09:52:19.891Z,30.05
2023-05-07T09:54:48.644Z,29.82
2023-05-07T09:57:17.300Z,29.98
2023-05-07T09:59:45.563Z,29.69
2023-05-07T10:02:15.091Z,29.52
2023-05-07T10:04:43.510Z,28.92
2023-05-07T10:07:11.646Z,29.67
2023-05-07T10:09:40.828Z,29.49
2023-05-07T10:12:09.344Z,29.60
2023-05-07T10:14:38.025Z,29.19
2023-05-07T10:17:06.677Z,28.39
2023-05-07T10:19:35.953Z,29.02
2023-05-07T10:22:07.494Z,29.00
2023-05-07T10:24:38.109Z,29.55
2023-05-07T10:27:11.665Z,28.84
2023-05-07T10:29:58.830Z,28.33
2023-05-07T10:32:44.167Z,26.89
2023-05-07T10:35:17.750Z,26.88
2023-05-07T10:37:46.714Z,26.91
2023-05-07T10:40:15.175Z,26.96
2023-05-07T10:43:06.440Z,26.59
2023-05-07T10:45:36.694Z,27.07
2023-05-07T10:50:49.694Z,27.89
2023-05-07T10:53:19.275Z,27.41
2023-05-07T10:55:52.206Z,28.14
2023-05-07T10:58:31.483Z,27.83
2023-05-07T11:01:02.326Z,27.82
2023-05-07T11:03:31.200Z,27.55
2023-05-07T11:06:16.303Z,27.31
2023-05-07T11:08:54.154Z,28.28
2023-05-07T11:11:49.060Z,27.35
2023-05-07T11:14:43.676Z,26.49
2023-05-07T11:17:11.940Z,26.31
2023-05-07T11:19:54.085Z,27.25
2023-05-07T11:22:34.450Z,27.44
2023-05-07T11:25:07.235Z,28.17
2023-05-07T11:27:37.180Z,27.52
2023-05-07T11:30:06.041Z,27.22
2023-05-07T11:32:34.515Z,26.92
2023-05-07T11:35:02.710Z,27.34
2023-05-07T11:37:31.639Z,27.00
2023-05-07T11:40:08.024Z,26.21
2023-05-07T11:42:38.879Z,26.70
2023-05-07T11:45:09.162Z,27.17
2023-05-07T11:47:38.059Z,27.40
2023-05-07T11:50:08.821Z,26.56
2023-05-07T11:52:37.605Z,26.12
2023-05-07T11:55:06.390Z,26.80
2023-05-07T11:57:34.875Z,26.58
2023-05-07T12:00:05.301Z,26.92
2023-05-07T12:02:34.309Z,27.12
2023-05-07T12:05:03.945Z,25.95
2023-05-07T12:07:33.274Z,25.78
2023-05-07T12:10:06.582Z,26.63
2023-05-07T12:12:47.907Z,26.42
2023-05-07T12:15:19.627Z,26.80
2023-05-07T12:17:48.101Z,26.76
2023-05-07T12:20:16.350Z,26.53
2023-05-07T12:22:44.645Z,25.67
2023-05-07T12:25:21.185Z,25.52
2023-05-07T12:27:54.126Z,25.12
2023-05-07T12:30:22.296Z,26.00
2023-05-07T12:32:54.930Z,27.29
2023-05-07T12:35:34.092Z,25.83
2023-05-07T12:38:05.791Z,25.96
2023-05-07T12:40:52.529Z,25.45
2023-05-07T12:43:28.079Z,26.78
2023-05-07T12:45:58.509Z,27.05
2023-05-07T12:48:28.513Z,27.72
2023-05-07T12:50:58.184Z,26.98
2023-05-07T12:53:28.256Z,26.64
2023-05-07T12:55:59.092Z,26.72
2023-05-07T12:58:29.474Z,26.88
2023-05-07T13:01:02.414Z,28.04
2023-05-07T13:03:33.345Z,28.34
2023-05-07T13:06:04.098Z,26.57
2023-05-07T13:08:41.718Z,26.49
2023-05-07T13:11:11.944Z,25.85
2023-05-07T13:13:42.007Z,26.17
2023-05-07T13:16:12.480Z,25.97
2023-05-07T13:18:42.442Z,26.77
2023-05-07T13:21:11.478Z,25.87
2023-05-07T13:23:39.949Z,25.69
2023-05-07T13:26:24.876Z,25.46
2023-05-07T13:28:56.301Z,26.56
2023-05-07T13:31:25.504Z,26.21
2023-05-07T13:33:54.157Z,24.63
2023-05-07T13:36:22.966Z,24.14
2023-05-07T13:38:53.111Z,24.62
2023-05-07T13:41:21.867Z,24.23
2023-05-07T13:43:50.220Z,24.59
2023-05-07T13:46:18.781Z,24.69
2023-05-07T13:48:47.012Z,23.96
2023-05-07T13:51:15.019Z,24.36
2023-05-07T13:53:50.069Z,24.44
2023-05-07T13:56:19.971Z,24.98
2023-05-07T13:58:59.564Z,25.79
2023-05-07T14:01:32.423Z,25.96
2023-05-07T14:04:01.021Z,25.64
2023-05-07T14:06:29.432Z,25.81
2023-05-07T14:08:59.506Z,26.36
2023-05-07T14:11:27.740Z,26.05
2023-05-07T14:13:58.255Z,25.30
2023-05-07T14:16:26.816Z,24.88
2023-05-07T14:18:57.979Z,25.73
2023-05-07T14:21:29.740Z,25.74
2023-05-07T14:23:57.981Z,25.17
2023-05-07T14:26:28.453Z,25.16
2023-05-07T14:28:59.525Z,24.82
2023-05-07T14:31:27.885Z,24.88
2023-05-07T14:33:56.162Z,25.55
2023-05-07T14:36:27.654Z,26.34
2023-05-07T14:38:56.476Z,25.51
2023-05-07T14:41:27.547Z,25.34
2023-05-07T14:43:57.121Z,25.32
2023-05-07T14:46:27.356Z,25.44
2023-05-07T14:48:55.533Z,25.71
2023-05-07T14:51:23.596Z,24.90
2023-05-07T14:53:53.054Z,25.45
2023-05-07T14:56:22.877Z,25.10
2023-05-07T14:58:51.159Z,24.78
2023-05-07T15:01:19.648Z,25.22
2023-05-07T15:03:48.133Z,24.98
2023-05-07T15:06:16.558Z,24.70
2023-05-07T15:08:44.774Z,24.74
2023-05-07T15:11:13.246Z,24.76
2023-05-07T15:13:41.269Z,25.28
2023-05-07T15:16:09.167Z,25.17
2023-05-07T15:18:38.822Z,26.02
2023-05-07T15:21:07.696Z,25.58
2023-05-07T15:23:37.477Z,25.52
2023-05-07T15:26:07.168Z,25.63
2023-05-07T15:28:35.849Z,25.86
2023-05-07T15:31:04.034Z,25.73
2023-05-07T15:33:32.196Z,25.57
2023-05-07T15:36:00.509Z,25.63
2023-05-07T15:38:28.491Z,25.85
2023-05-07T15:40:57.304Z,25.84
2023-05-07T15:43:26.702Z,25.36
2023-05-07T15:45:55.310Z,25.83
2023-05-07T15:48:23.486Z,25.37
2023-05-07T15:50:51.778Z,25.03
2023-05-07T15:53:20.509Z,25.57
2023-05-07T15:55:49.588Z,25.75
2023-05-07T15:58:23.003Z,25.39
2023-05-07T16:00:51.229Z,25.57
2023-05-07T16:03:19.919Z,26.52
2023-05-07T16:05:48.194Z,26.90
2023-05-07T16:08:16.640Z,27.06
2023-05-07T16:10:45.974Z,26.91
2023-05-07T16:13:14.568Z,26.90
2023-05-07T16:15:42.955Z,26.65
2023-05-07T16:18:12.750Z,27.13
2023-05-07T16:20:41.250Z,26.95
2023-05-07T16:23:10.443Z,26.87
2023-05-07T16:25:39.006Z,27.65
2023-05-07T16:28:08.298Z,28.26
2023-05-07T16:30:37.435Z,28.73
2023-05-07T16:33:06.042Z,29.66
2023-05-07T16:35:34.206Z,28.91
2023-05-07T16:38:02.371Z,29.32
2023-05-07T16:40:30.764Z,29.52
2023-05-07T16:42:58.788Z,30.04
2023-05-07T16:45:26.991Z,30.13
2023-05-07T16:47:57.187Z,29.99
2023-05-07T16:50:25.327Z,30.65
2023-05-07T16:53:09.925Z,30.49
2023-05-07T16:55:41.915Z,31.22
2023-05-07T16:58:11.808Z,31.57
2023-05-07T17:00:49.839Z,32.09
2023-05-07T17:03:19.853Z,32.12
2023-05-07T17:05:48.464Z,32.06
2023-05-07T17:08:17.234Z,32.04
2023-05-07T17:10:46.930Z,31.89
2023-05-07T17:13:17.931Z,32.46
2023-05-07T17:15:48.318Z,32.52
2023-05-07T17:18:17.378Z,32.83
2023-05-07T17:20:45.690Z,32.83
2023-05-07T17:23:14.410Z,33.47
2023-05-07T17:25:45.837Z,33.83
2023-05-07T17:28:14.654Z,33.55
2023-05-07T17:30:43.058Z,33.80
2023-05-07T17:33:20.844Z,34.06
2023-05-07T17:35:50.792Z,34.04
2023-05-07T17:38:18.982Z,34.20
2023-05-07T17:40:47.131Z,34.92
2023-05-07T17:43:16.052Z,35.30
2023-05-07T17:45:44.349Z,35.53
2023-05-07T17:48:13.504Z,35.77
2023-05-07T17:50:41.969Z,35.79
2023-05-07T17:53:10.286Z,35.55
2023-05-07T17:55:45.423Z,35.31
2023-05-07T17:58:13.708Z,35.51
2023-05-07T18:00:42.010Z,35.19
2023-05-07T18:03:10.485Z,35.41
2023-05-07T18:05:40.010Z,35.68
2023-05-07T18:08:08.424Z,36.20
2023-05-07T18:10:36.729Z,36.05
2023-05-07T18:13:05.162Z,36.26
2023-05-07T18:15:33.702Z,36.12
2023-05-07T18:18:01.608Z,35.82
2023-05-07T18:20:32.660Z,36.43
2023-05-07T18:23:01.249Z,36.56
2023-05-07T18:25:33.313Z,37.23
2023-05-07T18:28:01.663Z,36.95
2023-05-07T18:30:30.949Z,37.22
2023-05-07T18:32:59.450Z,37.34
2023-05-07T18:35:27.650Z,37.09
2023-05-07T18:37:55.948Z,37.74
2023-05-07T18:40:24.144Z,37.81
2023-05-07T18:42:53.584Z,37.54
2023-05-07T18:45:22.187Z,37.45
2023-05-07T18:47:50.348Z,37.79
2023-05-07T18:50:21.438Z,37.65
2023-05-07T18:52:49.568Z,37.77
2023-05-07T18:55:17.876Z,37.50
2023-05-07T18:57:46.283Z,37.22
2023-05-07T19:00:15.340Z,37.71
2023-05-07T19:02:44.183Z,38.07
2023-05-07T19:05:13.516Z,38.14
2023-05-07T19:07:41.931Z,38.11
2023-05-07T19:10:10.344Z,38.18
2023-05-07T19:12:38.900Z,38.51
2023-05-07T19:15:08.035Z,38.61
2023-05-07T19:17:41.832Z,38.29
2023-05-07T19:20:10.971Z,37.81
2023-05-07T19:22:41.793Z,38.32
2023-05-07T19:25:13.354Z,38.71
2023-05-07T19:27:44.807Z,39.36
2023-05-07T19:30:13.012Z,40.47
2023-05-07T19:32:44.257Z,40.47
2023-05-07T19:35:17.356Z,41.04
2023-05-07T19:37:46.171Z,41.59
2023-05-07T19:40:15.081Z,42.05
2023-05-07T19:42:43.285Z,41.92
2023-05-07T19:45:12.341Z,41.76
2023-05-07T19:47:41.609Z,41.36
2023-05-07T19:50:10.310Z,41.52
2023-05-07T19:52:38.713Z,41.74
2023-05-07T19:55:07.261Z,41.69
2023-05-07T19:57:37.809Z,41.83
2023-05-07T20:00:07.722Z,41.68
2023-05-07T20:02:37.331Z,40.74
2023-05-07T20:05:05.690Z,40.95
2023-05-07T20:07:34.097Z,40.98
2023-05-07T20:10:02.280Z,40.71
2023-05-07T20:12:31.087Z,41.11
2023-05-07T20:14:59.391Z,40.56
2023-05-07T20:17:27.566Z,40.25
2023-05-07T20:19:55.812Z,40.30
2023-05-07T20:22:24.176Z,40.59
2023-05-07T20:24:52.650Z,40.40
2023-05-07T20:27:35.752Z,40.56
2023-05-07T20:30:15.068Z,40.58
2023-05-07T20:32:43.720Z,41.03
2023-05-07T20:35:13.009Z,40.92
2023-05-07T20:37:41.452Z,40.97
2023-05-07T20:40:09.970Z,41.12
2023-05-07T20:42:38.627Z,41.11
2023-05-07T20:45:08.436Z,40.41
2023-05-07T20:47:37.663Z,40.52
2023-05-07T20:50:06.514Z,41.01
2023-05-07T20:52:36.028Z,40.78
2023-05-07T20:55:04.309Z,40.55
2023-05-07T20:57:32.716Z,40.69
2023-05-07T21:00:01.215Z,40.29
2023-05-07T21:02:32.424Z,41.02
2023-05-07T21:05:00.466Z,40.68
2023-05-07T21:07:28.763Z,41.00
2023-05-07T21:09:56.831Z,41.22
2023-05-07T21:12:24.960Z,41.22
2023-05-07T21:14:52.897Z,41.03
2023-05-07T21:17:21.399Z,41.16
2023-05-07T21:19:50.487Z,41.46
2023-05-07T21:22:18.632Z,40.96
2023-05-07T21:24:46.918Z,41.54
2023-05-07T21:27:15.381Z,41.51
2023-05-07T21:29:43.731Z,41.82
2023-05-07T21:32:11.763Z,42.75
2023-05-07T21:34:40.093Z,41.82
2023-05-07T21:37:08.426Z,42.21
2023-05-07T21:39:36.530Z,42.94
2023-05-07T21:42:04.842Z,42.45
2023-05-07T21:44:33.359Z,42.89
2023-05-07T21:47:01.832Z,42.62
2023-05-07T21:49:31.259Z,42.90
2023-05-07T21:52:02.370Z,43.21
2023-05-07T21:54:30.634Z,43.38
2023-05-07T21:56:58.926Z,44.07
2023-05-07T21:59:26.995Z,44.06
2023-05-07T22:01:55.196Z,44.01
2023-05-07T22:04:23.499Z,44.04
2023-05-07T22:06:51.771Z,43.92
2023-05-07T22:09:20.393Z,44.37
2023-05-07T22:11:48.745Z,43.65
2023-05-07T22:14:18.989Z,43.96
2023-05-07T22:16:47.671Z,44.01
2023-05-07T22:19:15.990Z,44.25
2023-05-07T22:21:44.205Z,44.48
2023-05-07T22:24:13.068Z,44.67
2023-05-07T22:26:43.010Z,44.73
2023-05-07T22:29:11.751Z,44.24
2023-05-07T22:31:42.933Z,44.93
2023-05-07T22:34:11.035Z,44.61
2023-05-07T22:36:39.066Z,45.11
2023-05-07T22:39:10.098Z,44.14
2023-05-07T22:41:38.179Z,43.88
2023-05-07T22:44:09.198Z,44.13
2023-05-07T22:46:37.360Z,44.55
2023-05-07T22:49:06.133Z,44.08
2023-05-07T22:51:34.231Z,44.03
2023-05-07T22:54:03.472Z,43.88
2023-05-07T22:56:32.302Z,44.27
2023-05-07T22:59:00.171Z,44.44
2023-05-07T23:01:28.260Z,44.70
2023-05-07T23:03:56.424Z,44.30
2023-05-07T23:06:25.234Z,44.47
2023-05-07T23:08:54.159Z,44.26
2023-05-07T23:11:22.735Z,43.89
2023-05-07T23:13:51.718Z,44.39
2023-05-07T23:16:20.362Z,44.23
2023-05-07T23:18:48.875Z,44.31
2023-05-07T23:21:17.100Z,44.23
2023-05-07T23:23:45.201Z,44.27
2023-05-07T23:26:14.243Z,44.22
2023-05-07T23:28:42.569Z,44.42
2023-05-07T23:31:15.511Z,45.24
2023-05-07T23:33:43.750Z,45.28
2023-05-07T23:36:11.715Z,44.85
2023-05-07T23:38:42.406Z,45.26
2023-05-07T23:41:10.383Z,45.37
2023-05-07T23:43:38.180Z,45.82
2023-05-07T23:46:06.437Z,46.32
2023-05-07T23:48:35.196Z,45.94
2023-05-07T23:51:03.645Z,45.99
2023-05-07T23:53:31.891Z,45.92
2023-05-07T23:55:59.875Z,46.18
2023-05-07T23:58:28.547Z,45.71
